Time;durP1;ratioP1;P1;durP2;ratioP2;P2;SDS_P1;SDS_P2;PMS_P1;PMS_P2;Temp;Humidity;BMP_temperature;BMP_pressure;BME280_temperature;BME280_humidity;BME280_pressure;Samples;Min_cycle;Max_cycle;Signal;HPM_P1;HPM_P2
2023/08/21 00:01:14;;;;;;;9.18;8.23;;;24.90;99.90;;;;;;5064141;28;20020;-55
2023/08/21 00:04:00;;;;;;;14.05;9.00;;;24.90;99.90;;;;;;5076650;28;20491;-55
2023/08/21 00:06:46;;;;;;;12.10;8.70;;;24.90;99.90;;;;;;5092575;28;20093;-58
2023/08/21 00:09:32;;;;;;;11.80;8.90;;;24.80;99.90;;;;;;5092358;28;20112;-56
2023/08/21 00:12:18;;;;;;;13.10;9.20;;;24.70;99.90;;;;;;5090079;28;20032;-53
2023/08/21 00:15:05;;;;;;;10.10;8.55;;;24.60;99.90;;;;;;5090807;28;20074;-54
2023/08/21 00:17:51;;;;;;;11.80;8.88;;;24.30;99.90;;;;;;5089743;28;20059;-54
2023/08/21 00:20:37;;;;;;;12.27;8.48;;;24.20;99.90;;;;;;5089641;28;20027;-57
2023/08/21 00:23:22;;;;;;;10.02;8.30;;;24.10;99.90;;;;;;5091807;28;20446;-55
2023/08/21 00:26:08;;;;;;;9.20;7.80;;;24.00;99.90;;;;;;5075956;28;20699;-55
2023/08/21 00:28:54;;;;;;;13.45;8.68;;;24.00;99.90;;;;;;5077386;28;20032;-54
2023/08/21 00:31:40;;;;;;;13.57;8.75;;;24.10;99.90;;;;;;5080256;28;20036;-52
2023/08/21 00:34:26;;;;;;;11.45;8.80;;;24.00;99.90;;;;;;5089573;28;20016;-55
2023/08/21 00:37:12;;;;;;;12.18;8.80;;;24.00;99.90;;;;;;5091133;28;20072;-58
2023/08/21 00:39:58;;;;;;;11.10;8.57;;;23.90;99.90;;;;;;5088221;28;20052;-56
2023/08/21 00:42:44;;;;;;;9.23;8.25;;;23.80;99.90;;;;;;5072021;28;20040;-54
2023/08/21 00:45:30;;;;;;;10.73;8.10;;;23.80;99.90;;;;;;5072257;28;20032;-54
2023/08/21 00:48:16;;;;;;;9.68;8.27;;;23.90;99.90;;;;;;5070732;28;20048;-56
2023/08/21 00:51:04;;;;;;;11.18;8.32;;;23.90;99.90;;;;;;5072263;28;20036;-54
2023/08/21 00:53:50;;;;;;;11.18;8.40;;;23.90;99.90;;;;;;5058279;28;20057;-54
2023/08/21 00:56:36;;;;;;;9.68;8.35;;;23.80;99.90;;;;;;5072233;28;20064;-55
2023/08/21 00:59:22;;;;;;;9.75;8.10;;;23.90;99.90;;;;;;5089867;28;20107;-53
2023/08/21 01:02:08;;;;;;;10.70;8.50;;;24.00;99.90;;;;;;5077986;28;20028;-52
2023/08/21 01:04:54;;;;;;;10.82;7.82;;;24.00;99.90;;;;;;5088688;28;20023;-57
2023/08/21 01:08:11;;;;;;;10.95;8.40;;;24.10;99.90;;;;;;5091489;28;20024;-54
2023/08/21 01:11:26;;;;;;;10.88;7.65;;;24.00;99.90;;;;;;5089104;28;20050;-55
2023/08/21 01:14:30;;;;;;;9.45;8.23;;;24.00;99.90;;;;;;5089926;28;20074;-53
2023/08/21 01:17:17;;;;;;;11.23;7.97;;;23.80;99.90;;;;;;5090632;28;20107;-51
2023/08/21 01:20:06;;;;;;;12.25;8.98;;;23.80;99.90;;;;;;5091156;28;20032;-55
2023/08/21 01:22:52;;;;;;;9.95;8.48;;;23.70;99.90;;;;;;5091329;28;20032;-54
2023/08/21 01:25:38;;;;;;;9.18;8.23;;;23.70;99.90;;;;;;5089920;28;20120;-54
2023/08/21 01:28:24;;;;;;;9.38;8.30;;;23.70;99.90;;;;;;5088948;28;20423;-55
2023/08/21 01:31:19;;;;;;;12.30;8.65;;;23.60;99.90;;;;;;5072146;28;20040;-53
2023/08/21 01:34:11;;;;;;;10.52;8.48;;;23.40;99.90;;;;;;5071246;28;20019;-54
2023/08/21 01:36:57;;;;;;;10.13;8.23;;;23.30;99.90;;;;;;5070937;28;20104;-55
2023/08/21 01:39:43;;;;;;;8.68;7.75;;;23.20;99.90;;;;;;5072493;28;20063;-56
2023/08/21 01:42:29;;;;;;;10.63;7.97;;;23.30;99.90;;;;;;5071727;28;20032;-55
2023/08/21 01:45:15;;;;;;;9.88;7.65;;;23.50;99.90;;;;;;5078653;28;20027;-55
2023/08/21 01:48:01;;;;;;;9.75;7.68;;;23.70;99.90;;;;;;5084302;28;20036;-55
2023/08/21 01:50:47;;;;;;;10.25;7.63;;;23.60;99.90;;;;;;5090666;28;20069;-56
2023/08/21 01:53:33;;;;;;;12.32;7.93;;;23.70;99.90;;;;;;5089802;28;20021;-53
2023/08/21 01:56:19;;;;;;;9.30;8.20;;;23.60;99.90;;;;;;5089847;28;20618;-55
2023/08/21 01:59:06;;;;;;;9.57;8.13;;;23.50;99.90;;;;;;5090757;28;20527;-56
2023/08/21 02:01:53;;;;;;;8.20;7.40;;;23.50;99.90;;;;;;5090550;28;20028;-54
2023/08/21 02:04:39;;;;;;;11.07;7.93;;;23.40;99.90;;;;;;5091098;28;20032;-56
2023/08/21 02:07:25;;;;;;;10.60;7.38;;;23.40;99.90;;;;;;5077114;28;20110;-56
2023/08/21 02:10:11;;;;;;;9.95;7.88;;;23.50;99.90;;;;;;5089599;28;20107;-51
2023/08/21 02:12:57;;;;;;;8.48;7.65;;;23.50;99.90;;;;;;5074446;28;20056;-53
2023/08/21 02:15:43;;;;;;;9.18;8.27;;;23.60;99.90;;;;;;5090905;28;20123;-57
2023/08/21 02:18:29;;;;;;;9.43;8.15;;;23.60;99.90;;;;;;5089143;28;20039;-54
2023/08/21 02:21:15;;;;;;;10.35;8.40;;;23.60;99.90;;;;;;5090339;28;20020;-58
2023/08/21 02:24:01;;;;;;;12.77;8.32;;;23.40;99.90;;;;;;5089755;28;20155;-54
2023/08/21 02:26:47;;;;;;;9.43;8.25;;;23.50;99.90;;;;;;5069653;28;20024;-55
2023/08/21 02:29:33;;;;;;;11.75;9.70;;;23.40;99.90;;;;;;5070558;28;20117;-57
2023/08/21 02:32:20;;;;;;;11.15;8.93;;;23.30;99.90;;;;;;5070275;28;20051;-56
2023/08/21 02:35:08;;;;;;;9.05;8.13;;;23.10;99.90;;;;;;5071245;28;20027;-56
2023/08/21 02:37:54;;;;;;;10.10;8.90;;;23.10;99.90;;;;;;5069943;28;20043;-58
2023/08/21 02:40:39;;;;;;;12.85;9.00;;;23.00;99.90;;;;;;5070432;28;20024;-55
2023/08/21 02:43:25;;;;;;;11.23;8.65;;;22.90;99.90;;;;;;5091760;28;20064;-58
2023/08/21 02:46:11;;;;;;;11.55;8.98;;;22.90;99.90;;;;;;5092619;28;20024;-58
2023/08/21 02:48:57;;;;;;;14.70;9.57;;;22.90;99.90;;;;;;5110832;28;20034;-52
2023/08/21 02:51:43;;;;;;;10.93;8.52;;;22.80;99.90;;;;;;5094570;28;20496;-54
2023/08/21 02:54:29;;;;;;;13.15;9.18;;;22.90;99.90;;;;;;5091389;28;20037;-56
2023/08/21 02:57:15;;;;;;;12.82;10.25;;;22.80;99.90;;;;;;5089593;28;20111;-58
2023/08/21 03:00:01;;;;;;;10.18;8.95;;;22.70;99.90;;;;;;5090114;28;20396;-56
2023/08/21 03:02:47;;;;;;;10.40;9.13;;;22.60;99.90;;;;;;5089232;28;20032;-55
2023/08/21 03:05:33;;;;;;;11.88;9.35;;;22.60;99.90;;;;;;5082861;28;20500;-56
2023/08/21 03:08:19;;;;;;;10.50;9.40;;;22.60;99.90;;;;;;5069845;28;20570;-56
2023/08/21 03:11:05;;;;;;;10.73;9.63;;;22.60;99.90;;;;;;5070134;28;20547;-56
2023/08/21 03:13:50;;;;;;;11.18;10.00;;;22.50;99.90;;;;;;5069210;28;20493;-56
2023/08/21 03:16:36;;;;;;;15.02;10.48;;;22.40;99.90;;;;;;5070365;28;20485;-55
2023/08/21 03:19:22;;;;;;;14.05;10.23;;;22.40;99.90;;;;;;5080015;28;20549;-55
2023/08/21 03:22:08;;;;;;;12.65;9.82;;;22.60;99.90;;;;;;5089522;28;20032;-55
2023/08/21 03:24:54;;;;;;;15.73;9.43;;;22.50;99.90;;;;;;5088747;28;20554;-56
2023/08/21 03:27:44;;;;;;;13.23;10.68;;;22.60;99.90;;;;;;5088698;28;20134;-52
2023/08/21 03:30:30;;;;;;;12.60;10.13;;;22.60;99.90;;;;;;5090109;28;20512;-53
2023/08/21 03:33:16;;;;;;;15.50;9.88;;;22.60;99.90;;;;;;5073918;28;20025;-57
2023/08/21 03:36:02;;;;;;;12.40;10.15;;;22.60;99.90;;;;;;5076738;28;20436;-55
2023/08/21 03:38:48;;;;;;;15.55;9.75;;;22.40;99.90;;;;;;5088863;28;20054;-55
2023/08/21 03:41:33;;;;;;;10.73;9.65;;;22.50;99.90;;;;;;5093085;28;20111;-55
2023/08/21 03:44:19;;;;;;;12.27;10.02;;;22.50;99.90;;;;;;5093150;28;20024;-56
2023/08/21 03:47:05;;;;;;;11.45;10.02;;;22.50;99.90;;;;;;5083696;28;20042;-54
2023/08/21 03:49:51;;;;;;;14.95;10.50;;;22.30;99.90;;;;;;5073346;28;20024;-54
2023/08/21 03:52:37;;;;;;;13.70;10.40;;;22.40;99.90;;;;;;5072043;28;20027;-55
2023/08/21 03:55:23;;;;;;;14.07;9.68;;;22.40;99.90;;;;;;5071791;28;20032;-53
2023/08/21 03:58:09;;;;;;;12.40;9.75;;;22.40;99.90;;;;;;5072127;28;20723;-56
2023/08/21 04:00:55;;;;;;;11.48;9.75;;;22.40;99.90;;;;;;5072879;28;20024;-52
2023/08/21 04:03:41;;;;;;;14.93;10.98;;;22.50;99.90;;;;;;5071810;28;20527;-55
2023/08/21 04:06:27;;;;;;;12.70;10.57;;;22.50;99.90;;;;;;5073255;28;20065;-53
2023/08/21 04:09:13;;;;;;;12.07;10.10;;;22.50;99.90;;;;;;5072304;28;20024;-53
2023/08/21 04:11:59;;;;;;;15.30;10.43;;;22.50;99.90;;;;;;5072890;28;20032;-53
2023/08/21 04:14:45;;;;;;;12.52;10.25;;;22.40;99.90;;;;;;5086240;28;20507;-56
2023/08/21 04:17:31;;;;;;;13.65;10.52;;;22.40;99.90;;;;;;5091410;28;20112;-55
2023/08/21 04:20:19;;;;;;;12.05;9.80;;;22.40;99.90;;;;;;5091619;28;20103;-53
2023/08/21 04:23:05;;;;;;;11.75;10.60;;;22.50;99.90;;;;;;5091446;28;20052;-58
2023/08/21 04:25:51;;;;;;;11.25;10.15;;;22.50;99.90;;;;;;5091716;28;20073;-58
2023/08/21 04:28:37;;;;;;;12.25;10.00;;;22.60;99.90;;;;;;5076953;28;20024;-52
2023/08/21 04:31:23;;;;;;;14.13;10.38;;;22.60;99.90;;;;;;5090845;28;20028;-53
2023/08/21 04:34:09;;;;;;;13.48;9.95;;;22.60;99.90;;;;;;5092142;28;20027;-55
2023/08/21 04:36:55;;;;;;;12.40;10.55;;;22.60;99.90;;;;;;5092316;28;20032;-54
2023/08/21 04:39:41;;;;;;;11.77;10.18;;;22.50;99.90;;;;;;5092088;28;20519;-52
2023/08/21 04:42:27;;;;;;;16.63;11.50;;;22.40;99.90;;;;;;5079459;28;20115;-56
2023/08/21 04:45:13;;;;;;;11.77;10.43;;;22.40;99.90;;;;;;5072100;28;20064;-55
2023/08/21 04:47:59;;;;;;;11.80;10.57;;;22.50;99.90;;;;;;5070706;28;20558;-57
2023/08/21 04:50:45;;;;;;;12.13;10.50;;;22.40;99.90;;;;;;5071437;28;20463;-55
2023/08/21 04:53:31;;;;;;;11.27;9.95;;;22.30;99.90;;;;;;5071684;28;20017;-52
2023/08/21 04:56:17;;;;;;;17.85;11.07;;;22.20;99.90;;;;;;5074487;28;20052;-60
2023/08/21 04:59:03;;;;;;;14.10;10.23;;;22.20;99.90;;;;;;5090704;28;20025;-58
2023/08/21 05:01:49;;;;;;;12.98;10.30;;;22.30;99.90;;;;;;5089851;28;20027;-58
2023/08/21 05:04:38;;;;;;;12.88;10.35;;;22.40;99.90;;;;;;5090290;28;20119;-55
2023/08/21 05:07:26;;;;;;;11.65;10.45;;;22.50;99.90;;;;;;5087944;28;20031;-58
2023/08/21 05:10:12;;;;;;;14.68;10.48;;;22.60;99.90;;;;;;5076026;28;20021;-58
2023/08/21 05:12:58;;;;;;;16.95;11.13;;;22.70;99.90;;;;;;5090376;28;20127;-58
2023/08/21 05:15:44;;;;;;;14.63;12.02;;;22.60;99.90;;;;;;5090891;28;20093;-57
2023/08/21 05:18:30;;;;;;;18.73;15.15;;;22.70;99.90;;;;;;5090354;28;20419;-54
2023/08/21 05:21:16;;;;;;;14.10;10.32;;;22.80;99.90;;;;;;5090699;28;20560;-55
2023/08/21 05:24:02;;;;;;;12.63;10.20;;;22.90;99.90;;;;;;5090283;28;20489;-56
2023/08/21 05:26:48;;;;;;;12.57;9.93;;;22.80;99.90;;;;;;5090881;28;20115;-56
2023/08/21 05:29:34;;;;;;;14.25;9.90;;;22.70;99.90;;;;;;5091739;28;20035;-55
2023/08/21 05:32:20;;;;;;;12.90;9.80;;;22.80;99.90;;;;;;5090990;28;20111;-58
2023/08/21 05:35:08;;;;;;;12.07;9.60;;;22.80;99.90;;;;;;5090528;28;20024;-57
2023/08/21 05:37:53;;;;;;;14.40;9.43;;;22.90;99.90;;;;;;5092244;28;20028;-58
2023/08/21 05:40:41;;;;;;;16.25;10.05;;;22.90;99.90;;;;;;5090828;28;20056;-54
2023/08/21 05:43:27;;;;;;;11.70;9.38;;;22.90;99.90;;;;;;5091515;28;20107;-59
2023/08/21 05:46:13;;;;;;;12.95;10.15;;;22.80;99.90;;;;;;5071270;28;20021;-57
2023/08/21 05:48:59;;;;;;;12.15;9.15;;;22.80;99.90;;;;;;5083537;28;20024;-57
2023/08/21 05:51:45;;;;;;;14.88;10.15;;;22.70;99.90;;;;;;5079917;28;20035;-54
2023/08/21 05:54:31;;;;;;;10.65;9.20;;;22.60;99.90;;;;;;5089606;28;20388;-54
2023/08/21 05:57:17;;;;;;;12.88;9.18;;;22.70;99.90;;;;;;5089682;28;20528;-56
2023/08/21 06:00:03;;;;;;;13.02;9.75;;;22.70;99.90;;;;;;5089737;28;20031;-51
2023/08/21 06:02:49;;;;;;;12.63;8.95;;;22.90;99.90;;;;;;5089285;28;20108;-58
2023/08/21 06:05:35;;;;;;;10.02;8.70;;;22.80;99.90;;;;;;5089011;28;20020;-55
2023/08/21 06:08:21;;;;;;;12.85;9.68;;;22.80;99.90;;;;;;5090963;28;20564;-56
2023/08/21 06:11:07;;;;;;;11.80;9.35;;;22.90;99.90;;;;;;5091384;28;20439;-54
2023/08/21 06:13:53;;;;;;;14.82;11.32;;;22.80;99.90;;;;;;5090620;28;20069;-57
2023/08/21 06:16:39;;;;;;;13.48;9.45;;;23.00;99.90;;;;;;5089134;28;20032;-57
2023/08/21 06:19:25;;;;;;;11.38;8.70;;;23.10;99.90;;;;;;5090416;28;20567;-57
2023/08/21 06:22:11;;;;;;;20.75;9.63;;;23.00;99.90;;;;;;5071203;28;20040;-56
2023/08/21 06:24:57;;;;;;;13.15;8.85;;;23.10;99.90;;;;;;5069781;28;20059;-56
2023/08/21 06:27:43;;;;;;;11.68;8.70;;;23.10;99.90;;;;;;5067888;28;20032;-57
2023/08/21 06:30:29;;;;;;;12.90;9.07;;;23.10;99.90;;;;;;5084882;28;20044;-57
2023/08/21 06:33:15;;;;;;;12.73;9.13;;;22.80;99.90;;;;;;5094668;28;20028;-56
2023/08/21 06:36:01;;;;;;;15.13;8.73;;;22.60;99.90;;;;;;5072224;28;20063;-57
2023/08/21 06:38:47;;;;;;;11.48;8.55;;;22.50;99.90;;;;;;5088422;28;20024;-54
2023/08/21 06:41:33;;;;;;;11.65;8.90;;;22.40;99.90;;;;;;5074190;28;20154;-54
2023/08/21 06:44:20;;;;;;;15.38;9.80;;;22.40;99.90;;;;;;5090182;28;20161;-54
2023/08/21 06:47:06;;;;;;;14.02;9.25;;;22.40;99.90;;;;;;5072534;28;20028;-58
2023/08/21 06:49:52;;;;;;;17.48;11.32;;;22.30;99.90;;;;;;5070530;28;20082;-59
2023/08/21 06:52:38;;;;;;;15.50;10.25;;;22.10;99.90;;;;;;5069793;28;20025;-58
2023/08/21 06:55:24;;;;;;;16.02;10.07;;;22.00;99.90;;;;;;5086582;28;20124;-59
2023/08/21 06:58:10;;;;;;;19.35;11.38;;;22.00;99.90;;;;;;5088867;28;20032;-58
2023/08/21 07:00:56;;;;;;;25.98;13.02;;;22.00;99.90;;;;;;5079676;28;20024;-55
2023/08/21 07:03:43;;;;;;;17.58;10.50;;;22.00;99.90;;;;;;5084189;28;20053;-57
2023/08/21 07:06:30;;;;;;;15.00;11.00;;;21.80;99.90;;;;;;5089364;28;20528;-55
2023/08/21 07:09:16;;;;;;;16.40;10.57;;;21.60;99.90;;;;;;5091507;28;20031;-56
2023/08/21 07:12:02;;;;;;;14.65;11.30;;;21.70;99.90;;;;;;5090636;28;20024;-55
2023/08/21 07:14:48;;;;;;;17.95;11.52;;;21.80;99.90;;;;;;5064238;28;20100;-57
2023/08/21 07:17:34;;;;;;;12.93;9.75;;;21.90;99.90;;;;;;5093165;28;20556;-57
2023/08/21 07:20:20;;;;;;;12.65;10.18;;;22.10;99.90;;;;;;5093284;28;20444;-55
2023/08/21 07:23:06;;;;;;;12.88;10.30;;;22.20;99.90;;;;;;5093338;28;20024;-55
2023/08/21 07:25:52;;;;;;;14.23;11.43;;;22.40;99.90;;;;;;5093073;28;20035;-55
2023/08/21 07:28:38;;;;;;;26.23;21.10;;;22.50;99.90;;;;;;5073153;28;20036;-56
2023/08/21 07:31:24;;;;;;;19.58;14.73;;;22.50;99.90;;;;;;5066131;28;20484;-54
2023/08/21 07:34:10;;;;;;;16.23;10.50;;;22.70;99.90;;;;;;5054319;28;20567;-52
2023/08/21 07:36:56;;;;;;;10.90;9.07;;;22.80;99.90;;;;;;5087541;28;20020;-52
2023/08/21 07:39:42;;;;;;;11.68;9.48;;;23.00;99.90;;;;;;5085010;28;20063;-51
2023/08/21 07:42:28;;;;;;;13.63;10.20;;;23.10;99.90;;;;;;5079270;28;20489;-55
2023/08/21 07:45:14;;;;;;;11.60;10.38;;;23.20;99.90;;;;;;5082067;28;20553;-58
2023/08/21 07:48:00;;;;;;;11.05;9.38;;;23.20;99.90;;;;;;5084663;28;20028;-54
2023/08/21 07:50:55;;;;;;;17.88;10.70;;;23.30;99.90;;;;;;5084897;28;20078;-57
2023/08/21 07:53:41;;;;;;;16.38;10.05;;;23.50;99.90;;;;;;5084799;28;20034;-55
2023/08/21 07:56:27;;;;;;;13.85;10.27;;;23.50;99.90;;;;;;5066048;28;20069;-54
2023/08/21 07:59:13;;;;;;;13.25;10.07;;;23.60;99.90;;;;;;5104195;28;20028;-57
2023/08/21 08:02:00;;;;;;;15.95;11.25;;;23.70;99.90;;;;;;5079048;28;20477;-56
2023/08/21 08:04:46;;;;;;;13.68;11.50;;;23.60;99.90;;;;;;5086376;28;20028;-58
2023/08/21 08:07:32;;;;;;;18.80;12.40;;;23.50;99.90;;;;;;5079373;28;20546;-57
2023/08/21 08:10:18;;;;;;;13.10;10.50;;;23.30;99.90;;;;;;5085648;28;20520;-56
2023/08/21 08:13:04;;;;;;;17.17;12.73;;;23.20;99.90;;;;;;5076646;28;20059;-56
2023/08/21 08:15:50;;;;;;;15.63;12.23;;;23.30;99.90;;;;;;5085771;28;20020;-54
2023/08/21 08:18:36;;;;;;;13.57;11.38;;;23.50;99.90;;;;;;5073965;28;20028;-56
2023/08/21 08:21:22;;;;;;;15.88;11.70;;;23.50;99.90;;;;;;5090594;28;20043;-52
2023/08/21 08:24:08;;;;;;;15.13;10.43;;;23.60;99.90;;;;;;5079571;28;20031;-56
2023/08/21 08:26:54;;;;;;;13.95;11.77;;;23.60;99.90;;;;;;5086073;28;20089;-54
2023/08/21 08:29:40;;;;;;;13.60;10.30;;;23.70;99.90;;;;;;5073233;28;20098;-56
2023/08/21 08:32:26;;;;;;;11.90;9.23;;;23.90;99.90;;;;;;5070877;28;20420;-57
2023/08/21 08:35:13;;;;;;;12.95;10.35;;;24.00;99.90;;;;;;5071602;28;20067;-56
2023/08/21 08:37:59;;;;;;;14.50;9.25;;;24.10;99.90;;;;;;5085778;28;20408;-58
2023/08/21 08:40:46;;;;;;;11.65;9.63;;;24.20;99.90;;;;;;5074049;28;20032;-56
2023/08/21 08:43:35;;;;;;;11.85;8.82;;;24.30;99.90;;;;;;5057141;28;20024;-58
2023/08/21 08:46:22;;;;;;;13.15;8.25;;;24.30;99.90;;;;;;5073378;28;20021;-55
2023/08/21 08:49:08;;;;;;;10.25;7.65;;;24.30;99.90;;;;;;5073048;28;20040;-57
2023/08/21 08:51:55;;;;;;;10.05;7.85;;;24.40;99.90;;;;;;5085815;28;20504;-57
2023/08/21 08:54:41;;;;;;;9.43;8.45;;;24.60;99.90;;;;;;5089591;28;20025;-57
2023/08/21 08:57:27;;;;;;;9.63;7.28;;;24.80;99.90;;;;;;5089393;28;20382;-58
2023/08/21 09:00:13;;;;;;;9.45;7.75;;;25.10;99.90;;;;;;5091333;28;20024;-55
2023/08/21 09:02:59;;;;;;;8.45;6.82;;;25.10;99.90;;;;;;5082298;28;20451;-57
2023/08/21 09:05:45;;;;;;;10.20;6.93;;;25.30;99.90;;;;;;5074506;28;20044;-57
2023/08/21 09:08:34;;;;;;;8.48;6.80;;;25.30;99.90;;;;;;5088299;28;20032;-56
2023/08/21 09:11:20;;;;;;;10.38;6.38;;;25.50;99.90;;;;;;5086746;28;20552;-56
2023/08/21 09:14:06;;;;;;;7.80;6.18;;;25.70;99.90;;;;;;5071575;28;20025;-57
2023/08/21 09:17:04;;;;;;;8.45;6.63;;;25.60;99.90;;;;;;5085997;28;20029;-57
2023/08/21 09:19:50;;;;;;;6.50;5.80;;;25.80;99.90;;;;;;5080159;28;20046;-57
2023/08/21 09:22:36;;;;;;;9.50;5.45;;;25.90;99.30;;;;;;5084285;28;20504;-55
2023/08/21 09:25:24;;;;;;;5.95;5.00;;;26.00;98.80;;;;;;5091056;28;20050;-54
2023/08/21 09:28:10;;;;;;;7.35;5.30;;;25.90;97.40;;;;;;5090266;28;20032;-57
2023/08/21 09:30:58;;;;;;;7.13;4.82;;;25.90;97.00;;;;;;5065394;28;20036;-53
2023/08/21 09:33:54;;;;;;;5.40;4.78;;;25.80;96.80;;;;;;5090906;28;20028;-57
2023/08/21 09:36:40;;;;;;;4.95;4.45;;;25.90;96.40;;;;;;5092624;28;20070;-57
2023/08/21 09:39:33;;;;;;;8.00;4.78;;;26.00;95.40;;;;;;5091179;28;20025;-58
2023/08/21 09:42:19;;;;;;;8.23;4.68;;;26.00;94.90;;;;;;5090555;28;20035;-54
2023/08/21 09:45:06;;;;;;;4.82;4.22;;;26.00;94.20;;;;;;5089354;28;20039;-54
2023/08/21 09:47:55;;;;;;;6.70;4.82;;;26.10;94.20;;;;;;5061593;28;20024;-57
2023/08/21 09:50:42;;;;;;;6.45;4.35;;;26.30;94.20;;;;;;5070905;28;20029;-52
2023/08/21 09:53:28;;;;;;;6.78;4.50;;;26.40;94.20;;;;;;5075333;28;20101;-56
2023/08/21 09:56:15;;;;;;;6.28;4.22;;;26.50;93.70;;;;;;5089743;28;20039;-57
2023/08/21 09:59:01;;;;;;;7.03;4.30;;;26.50;93.80;;;;;;5075183;28;20020;-57
2023/08/21 10:01:49;;;;;;;8.35;4.32;;;26.50;93.70;;;;;;5087702;28;20130;-58
2023/08/21 10:04:37;;;;;;;6.95;4.88;;;26.70;93.10;;;;;;5083407;28;20107;-57
2023/08/21 10:07:27;;;;;;;5.25;3.78;;;26.70;91.90;;;;;;5070197;28;20021;-55
2023/08/21 10:10:13;;;;;;;6.68;3.90;;;27.00;92.00;;;;;;5055470;28;20507;-57
2023/08/21 10:13:00;;;;;;;6.63;4.22;;;27.10;91.70;;;;;;5073806;28;20488;-57
2023/08/21 10:15:46;;;;;;;4.93;4.43;;;27.20;91.90;;;;;;5079526;28;20546;-58
2023/08/21 10:18:36;;;;;;;5.68;3.70;;;27.10;91.10;;;;;;5080471;28;20029;-54
2023/08/21 10:21:25;;;;;;;5.75;3.30;;;27.00;90.40;;;;;;5074391;28;20499;-55
2023/08/21 10:24:11;;;;;;;4.07;3.60;;;26.90;88.90;;;;;;5078968;28;20059;-51
2023/08/21 10:27:00;;;;;;;4.50;3.80;;;26.90;89.60;;;;;;5071098;28;20099;-58
2023/08/21 10:29:59;;;;;;;6.40;4.13;;;27.00;90.60;;;;;;5077803;28;20021;-55
2023/08/21 10:32:50;;;;;;;5.75;4.30;;;26.80;91.10;;;;;;5083223;28;20410;-54
2023/08/21 10:35:36;;;;;;;8.15;4.90;;;26.80;91.50;;;;;;5071673;28;20060;-57
2023/08/21 10:38:22;;;;;;;5.50;4.18;;;26.90;92.30;;;;;;5072080;28;20032;-50
2023/08/21 10:41:10;;;;;;;6.78;4.68;;;26.90;92.10;;;;;;5070651;28;20036;-52
2023/08/21 10:43:56;;;;;;;7.32;5.05;;;27.00;92.20;;;;;;5071252;28;20029;-52
2023/08/21 10:46:52;;;;;;;7.00;4.47;;;27.10;92.10;;;;;;5071549;28;20036;-57
2023/08/21 10:49:38;;;;;;;4.90;4.20;;;27.00;92.00;;;;;;5080180;28;20039;-57
2023/08/21 10:52:46;;;;;;;6.50;5.30;;;27.00;91.70;;;;;;5086602;28;20036;-53
2023/08/21 10:55:32;;;;;;;7.03;4.53;;;27.20;91.60;;;;;;5087706;28;20051;-55
2023/08/21 10:58:18;;;;;;;6.55;4.38;;;27.30;91.90;;;;;;5089058;28;20039;-57
2023/08/21 11:01:04;;;;;;;4.90;4.40;;;27.50;91.40;;;;;;5079699;28;20028;-58
2023/08/21 11:03:51;;;;;;;7.70;4.53;;;27.60;91.70;;;;;;5078815;28;20063;-56
2023/08/21 11:06:37;;;;;;;6.20;4.88;;;27.70;91.40;;;;;;5081844;28;20126;-58
2023/08/21 11:09:23;;;;;;;6.10;4.50;;;27.80;91.00;;;;;;5079753;28;20033;-56
2023/08/21 11:12:11;;;;;;;6.53;4.75;;;27.90;90.90;;;;;;5078678;28;20457;-52
2023/08/21 11:14:57;;;;;;;5.10;4.60;;;27.90;90.90;;;;;;5088188;28;20073;-53
2023/08/21 11:17:54;;;;;;;6.85;5.45;;;27.60;91.30;;;;;;5090999;28;20510;-51
2023/08/21 11:20:41;;;;;;;7.38;4.50;;;27.50;91.60;;;;;;5091139;28;20515;-55
2023/08/21 11:23:33;;;;;;;9.10;5.43;;;27.60;92.00;;;;;;5075762;28;20022;-49
2023/08/21 11:26:20;;;;;;;7.32;6.47;;;27.80;92.40;;;;;;5091144;28;20024;-58
2023/08/21 11:29:06;;;;;;;5.35;4.82;;;28.00;91.90;;;;;;5091406;28;20100;-57
2023/08/21 11:31:54;;;;;;;7.93;5.30;;;28.10;91.50;;;;;;5092339;28;20039;-57
2023/08/21 11:34:54;;;;;;;9.50;5.82;;;28.40;91.40;;;;;;5091153;28;20466;-57
2023/08/21 11:37:47;;;;;;;8.65;5.43;;;28.60;91.50;;;;;;5090866;28;20071;-53
2023/08/21 11:40:36;;;;;;;6.13;4.82;;;28.60;91.40;;;;;;5091227;28;20624;-53
2023/08/21 11:43:33;;;;;;;6.95;5.53;;;28.70;91.10;;;;;;5091555;28;20028;-52
2023/08/21 11:46:19;;;;;;;6.72;5.38;;;28.80;90.60;;;;;;5090842;28;20436;-54
2023/08/21 11:49:05;;;;;;;6.07;5.28;;;28.90;91.00;;;;;;5076297;28;20450;-52
2023/08/21 11:51:51;;;;;;;7.45;5.53;;;29.00;90.80;;;;;;5091022;28;20570;-53
2023/08/21 11:54:40;;;;;;;6.45;5.47;;;28.80;90.90;;;;;;5092242;28;20028;-53
2023/08/21 11:57:27;;;;;;;8.02;5.25;;;28.60;90.60;;;;;;5094337;28;20042;-54
2023/08/21 12:00:14;;;;;;;7.70;5.10;;;28.60;90.70;;;;;;5093372;28;20024;-53
2023/08/21 12:03:02;;;;;;;7.57;5.63;;;28.60;90.90;;;;;;5093665;28;20031;-56
2023/08/21 12:05:49;;;;;;;6.43;5.10;;;28.70;91.40;;;;;;5094553;28;20039;-54
2023/08/21 12:08:35;;;;;;;6.55;5.07;;;28.80;91.20;;;;;;5093273;28;20031;-55
2023/08/21 12:11:21;;;;;;;7.20;5.28;;;28.80;90.70;;;;;;5093766;28;20106;-55
2023/08/21 12:14:07;;;;;;;7.05;5.53;;;28.80;90.90;;;;;;5093543;28;20075;-55
2023/08/21 12:16:54;;;;;;;5.68;5.07;;;28.90;90.70;;;;;;5092582;28;20024;-55
2023/08/21 12:19:41;;;;;;;7.78;5.85;;;29.00;90.40;;;;;;5093476;28;20024;-53
2023/08/21 12:22:27;;;;;;;6.68;5.88;;;29.10;90.50;;;;;;5093015;28;20021;-56
2023/08/21 12:25:13;;;;;;;6.97;5.95;;;29.10;90.30;;;;;;5092885;28;20024;-53
2023/08/21 12:27:59;;;;;;;5.88;5.15;;;29.10;90.30;;;;;;5092796;28;20029;-55
2023/08/21 12:30:47;;;;;;;6.93;5.40;;;29.00;90.60;;;;;;5093418;28;20040;-53
2023/08/21 12:33:32;;;;;;;31.10;28.08;;;29.20;90.50;;;;;;5078349;28;20443;-57
2023/08/21 12:36:19;;;;;;;11.50;8.23;;;29.40;90.80;;;;;;5093508;28;20043;-59
2023/08/21 12:39:06;;;;;;;6.78;6.18;;;29.40;91.10;;;;;;5093266;28;20024;-57
2023/08/21 12:41:52;;;;;;;9.68;5.85;;;29.60;91.10;;;;;;5092678;28;20033;-56
2023/08/21 12:44:39;;;;;;;8.50;6.13;;;29.80;90.80;;;;;;5092372;28;20608;-55
2023/08/21 12:47:25;;;;;;;7.43;6.10;;;29.80;90.40;;;;;;5085725;28;20573;-52
2023/08/21 12:50:10;;;;;;;9.48;6.40;;;29.90;90.30;;;;;;5082043;28;20519;-55
2023/08/21 12:52:56;;;;;;;13.80;6.05;;;29.90;89.30;;;;;;5083978;28;20504;-57
2023/08/21 12:55:43;;;;;;;9.13;5.88;;;29.80;89.90;;;;;;5081115;28;20029;-55
2023/08/21 12:58:29;;;;;;;7.97;5.82;;;29.90;90.10;;;;;;5072621;28;20074;-55
2023/08/21 13:01:15;;;;;;;7.35;5.35;;;30.10;90.20;;;;;;5071908;28;20025;-54
2023/08/21 13:04:02;;;;;;;6.22;5.63;;;30.30;89.70;;;;;;5072529;28;20378;-53
2023/08/21 13:06:48;;;;;;;8.80;5.95;;;30.50;89.70;;;;;;5071660;28;20032;-55
2023/08/21 13:09:34;;;;;;;8.52;6.03;;;30.60;89.40;;;;;;5081509;28;20040;-54
2023/08/21 13:12:20;;;;;;;6.63;5.50;;;30.70;86.80;;;;;;5090480;28;20032;-53
2023/08/21 13:15:09;;;;;;;6.95;5.72;;;30.60;87.00;;;;;;5076305;28;20032;-54
2023/08/21 13:17:56;;;;;;;7.90;5.95;;;30.70;87.60;;;;;;5072684;28;20024;-55
2023/08/21 13:20:42;;;;;;;5.90;5.03;;;30.60;87.30;;;;;;5073539;28;20107;-53
2023/08/21 13:23:30;;;;;;;8.45;5.90;;;30.40;87.20;;;;;;5090998;28;20028;-51
2023/08/21 13:26:16;;;;;;;6.05;5.30;;;30.30;88.00;;;;;;5091918;28;20020;-53
2023/08/21 13:29:02;;;;;;;8.80;5.43;;;30.20;87.70;;;;;;5092885;28;20020;-59
2023/08/21 13:31:48;;;;;;;9.05;5.47;;;30.40;88.00;;;;;;5071166;28;20036;-54
2023/08/21 13:34:34;;;;;;;6.07;5.45;;;30.80;88.50;;;;;;5072885;28;20063;-51
2023/08/21 13:37:21;;;;;;;6.90;5.35;;;31.30;88.70;;;;;;5058335;28;20031;-48
2023/08/21 13:40:11;;;;;;;7.32;5.95;;;31.60;87.20;;;;;;5072677;28;20020;-52
2023/08/21 13:42:58;;;;;;;8.77;5.95;;;31.60;86.70;;;;;;5071998;28;20102;-52
2023/08/21 13:45:43;;;;;;;7.05;5.57;;;31.60;87.40;;;;;;5071856;28;20025;-51
2023/08/21 13:48:30;;;;;;;8.07;5.32;;;31.50;87.20;;;;;;5072375;28;20056;-51
2023/08/21 13:51:16;;;;;;;11.55;5.57;;;31.40;87.00;;;;;;5071612;28;20060;-50
2023/08/21 13:54:02;;;;;;;6.63;5.40;;;31.60;87.10;;;;;;5072223;28;20031;-50
2023/08/21 13:56:48;;;;;;;9.73;5.43;;;31.90;86.60;;;;;;5071816;28;20074;-53
2023/08/21 13:59:34;;;;;;;7.07;6.38;;;32.10;86.60;;;;;;5072070;28;20107;-50
2023/08/21 14:02:20;;;;;;;8.00;5.72;;;32.00;87.10;;;;;;5071743;28;20029;-51
2023/08/21 14:05:07;;;;;;;9.15;5.22;;;32.20;86.90;;;;;;5072006;28;20053;-49
2023/08/21 14:07:53;;;;;;;7.93;5.55;;;32.10;85.90;;;;;;5071903;28;20032;-52
2023/08/21 14:10:39;;;;;;;8.57;5.93;;;31.70;84.60;;;;;;5056309;28;20512;-47
2023/08/21 14:13:25;;;;;;;6.97;5.88;;;31.50;85.20;;;;;;5073744;28;20040;-51
2023/08/21 14:16:11;;;;;;;5.85;5.22;;;31.00;85.60;;;;;;5071808;28;20089;-52
2023/08/21 14:18:57;;;;;;;8.52;5.43;;;30.50;86.60;;;;;;5070176;28;20107;-48